Time;durP1;ratioP1;P1;durP2;ratioP2;P2;SDS_P1;SDS_P2;PMS_P1;PMS_P2;Temp;Humidity;BMP_temperature;BMP_pressure;BME280_temperature;BME280_humidity;BME280_pressure;Samples;Min_cycle;Max_cycle;Signal;HPM_P1;HPM_P2
2022/10/08 00:01:11;;;;;;;5.75;2.03;;;14.40;71.70;;;;;;5001823;28;20029;-68
2022/10/08 00:03:40;;;;;;;6.30;1.80;;;14.40;71.70;;;;;;5006059;28;20034;-69
2022/10/08 00:06:11;;;;;;;7.10;2.45;;;14.40;71.60;;;;;;5007574;28;20405;-69
2022/10/08 00:08:38;;;;;;;6.23;1.90;;;14.40;71.80;;;;;;4993930;28;20030;-69
2022/10/08 00:11:10;;;;;;;7.47;2.17;;;14.50;71.90;;;;;;5000195;28;20722;-67
2022/10/08 00:13:41;;;;;;;6.43;2.53;;;14.50;71.90;;;;;;5003983;28;20484;-68
2022/10/08 00:16:14;;;;;;;6.53;2.28;;;14.50;72.00;;;;;;5005131;28;20440;-68
2022/10/08 00:18:41;;;;;;;7.78;2.20;;;14.50;72.00;;;;;;5003287;28;20053;-67
2022/10/08 00:21:13;;;;;;;6.55;2.28;;;14.50;72.10;;;;;;4994779;28;20410;-67
2022/10/08 00:23:38;;;;;;;;;;;14.50;72.10;;;;;;5005026;28;20030;-68
2022/10/08 00:26:06;;;;;;;7.15;2.40;;;14.50;72.10;;;;;;5003068;28;19913;-68
2022/10/08 00:28:33;;;;;;;8.73;2.25;;;14.50;72.40;;;;;;5003139;28;20025;-68
2022/10/08 00:31:11;;;;;;;6.50;2.10;;;14.50;72.50;;;;;;5011486;28;20036;-68
2022/10/08 00:33:37;;;;;;;3.35;1.80;;;14.60;72.50;;;;;;5008925;28;20034;-67
2022/10/08 00:36:09;;;;;;;8.65;2.28;;;14.60;72.40;;;;;;5008741;28;20026;-67
2022/10/08 00:38:35;;;;;;;10.63;2.40;;;14.60;72.50;;;;;;5007058;28;20031;-67
2022/10/08 00:41:01;;;;;;;5.35;1.90;;;14.60;72.60;;;;;;5009409;28;20448;-67
2022/10/08 00:43:45;;;;;;;5.80;2.22;;;14.60;72.50;;;;;;5001176;28;20669;-67
2022/10/08 00:46:48;;;;;;;7.38;2.45;;;14.60;72.60;;;;;;5007628;28;20018;-67
2022/10/08 00:49:21;;;;;;;;;;;14.60;72.60;;;;;;4998676;28;20026;-67
2022/10/08 00:51:51;;;;;;;7.78;2.22;;;14.60;72.70;;;;;;5005894;28;20003;-67
2022/10/08 00:54:19;;;;;;;5.85;2.22;;;14.60;73.00;;;;;;5002418;28;20030;-67
2022/10/08 00:56:50;;;;;;;6.65;2.10;;;14.60;73.50;;;;;;5008727;28;20485;-67
2022/10/08 00:59:15;;;;;;;6.07;2.70;;;14.60;73.80;;;;;;5010147;28;20022;-67
2022/10/08 01:01:42;;;;;;;7.70;2.50;;;14.60;73.90;;;;;;5008953;28;20475;-67
2022/10/08 01:04:08;;;;;;;4.15;1.92;;;14.60;74.10;;;;;;5010400;28;20112;-67
2022/10/08 01:06:48;;;;;;;6.38;2.22;;;14.60;74.10;;;;;;5005831;28;20488;-67
2022/10/08 01:09:20;;;;;;;6.25;2.45;;;14.60;74.20;;;;;;5008887;28;20542;-67
2022/10/08 01:12:06;;;;;;;8.18;2.53;;;14.60;74.50;;;;;;5008317;28;20034;-68
2022/10/08 01:14:55;;;;;;;6.63;2.08;;;14.50;74.80;;;;;;4996221;28;20053;-68
2022/10/08 01:17:50;;;;;;;6.85;2.22;;;14.50;75.10;;;;;;5007256;28;20555;-67
2022/10/08 01:20:40;;;;;;;5.55;2.35;;;14.40;75.60;;;;;;5001912;28;20021;-68
2022/10/08 01:23:30;;;;;;;5.57;2.42;;;14.40;76.00;;;;;;5009923;28;20447;-68
2022/10/08 01:26:10;;;;;;;6.70;2.70;;;14.30;76.20;;;;;;5012043;28;20034;-68
2022/10/08 01:28:55;;;;;;;3.92;1.80;;;14.30;76.60;;;;;;5009941;28;20654;-67
2022/10/08 01:31:29;;;;;;;4.10;2.00;;;14.30;76.70;;;;;;5019194;28;20107;-67
2022/10/08 01:34:14;;;;;;;5.40;2.30;;;14.30;76.90;;;;;;5011287;28;20030;-68
2022/10/08 01:36:44;;;;;;;4.50;2.17;;;14.30;77.10;;;;;;5012083;28;20021;-68
2022/10/08 01:39:15;;;;;;;6.25;2.22;;;14.20;77.30;;;;;;5011344;28;20022;-67
2022/10/08 01:41:45;;;;;;;6.07;2.10;;;14.20;77.60;;;;;;5010602;28;20026;-67
2022/10/08 01:44:22;;;;;;;6.15;2.35;;;14.20;77.80;;;;;;5011994;28;20084;-67
2022/10/08 01:46:50;;;;;;;4.30;1.85;;;14.20;78.00;;;;;;5011010;28;20341;-67
2022/10/08 01:49:21;;;;;;;3.67;1.90;;;14.20;78.20;;;;;;5011741;28;20436;-67
2022/10/08 01:51:59;;;;;;;4.17;1.90;;;14.20;78.20;;;;;;5011365;28;20050;-67
2022/10/08 01:54:27;;;;;;;4.30;1.98;;;14.20;78.30;;;;;;5010478;28;20061;-67
2022/10/08 01:56:55;;;;;;;3.80;1.85;;;14.20;78.30;;;;;;5011411;28;20500;-66
2022/10/08 01:59:31;;;;;;;4.38;1.95;;;14.20;78.50;;;;;;5007325;28;20489;-67
2022/10/08 02:02:14;;;;;;;5.80;2.05;;;14.20;78.70;;;;;;5008608;28;20022;-66
2022/10/08 02:04:41;;;;;;;5.20;1.98;;;14.20;78.90;;;;;;5010888;28;20496;-67
2022/10/08 02:07:17;;;;;;;4.68;2.20;;;14.10;79.00;;;;;;5011292;28;20033;-67
2022/10/08 02:09:46;;;;;;;4.93;1.98;;;14.10;79.10;;;;;;5011389;28;20030;-67
2022/10/08 02:12:13;;;;;;;3.67;1.60;;;14.10;79.10;;;;;;5009902;28;20034;-67
2022/10/08 02:14:44;;;;;;;6.32;2.35;;;14.20;79.10;;;;;;5010991;28;20114;-68
2022/10/08 02:17:27;;;;;;;4.75;2.75;;;14.10;79.50;;;;;;4998328;28;20025;-68
2022/10/08 02:20:05;;;;;;;6.18;2.42;;;14.10;80.00;;;;;;5009757;28;20021;-68
2022/10/08 02:22:38;;;;;;;5.97;2.90;;;14.00;80.10;;;;;;5010872;28;20030;-68
2022/10/08 02:25:20;;;;;;;4.72;2.92;;;14.00;80.30;;;;;;5004179;28;20038;-68
2022/10/08 02:28:11;;;;;;;5.97;3.00;;;13.90;80.60;;;;;;5010586;28;20499;-68
2022/10/08 02:31:00;;;;;;;5.20;3.40;;;14.00;80.80;;;;;;5010972;28;20425;-68
2022/10/08 02:33:33;;;;;;;6.25;3.45;;;13.90;80.80;;;;;;5009253;28;20050;-69
2022/10/08 02:36:03;;;;;;;6.63;4.38;;;13.90;80.80;;;;;;5010841;28;20028;-69
2022/10/08 02:38:36;;;;;;;4.00;3.00;;;13.90;81.10;;;;;;5010783;28;20111;-69
2022/10/08 02:41:04;;;;;;;5.35;3.50;;;14.00;81.20;;;;;;5010619;28;20030;-70
2022/10/08 02:43:33;;;;;;;5.32;3.65;;;13.90;81.10;;;;;;5010936;28;20030;-69
2022/10/08 02:46:02;;;;;;;6.32;4.40;;;14.00;81.30;;;;;;5010391;28;20026;-70
2022/10/08 02:48:31;;;;;;;8.25;4.10;;;13.90;81.60;;;;;;5009722;28;20038;-70
2022/10/08 02:51:02;;;;;;;8.18;4.97;;;13.90;81.70;;;;;;5009187;28;20518;-70
2022/10/08 02:53:28;;;;;;;4.67;3.73;;;13.90;82.10;;;;;;5009272;28;20044;-71
2022/10/08 02:56:19;;;;;;;7.15;4.32;;;13.90;82.20;;;;;;5010526;28;20014;-70
2022/10/08 02:58:45;;;;;;;8.23;4.40;;;13.90;82.20;;;;;;5010509;28;20396;-69
2022/10/08 03:01:27;;;;;;;5.75;3.70;;;13.90;82.30;;;;;;5010758;28;20026;-69
2022/10/08 03:04:08;;;;;;;6.13;4.10;;;13.90;82.50;;;;;;5008783;28;20036;-69
2022/10/08 03:06:34;;;;;;;7.53;4.47;;;13.90;82.40;;;;;;5009749;28;20411;-67
2022/10/08 03:09:02;;;;;;;6.68;4.30;;;13.90;82.50;;;;;;5009230;28;20488;-66
2022/10/08 03:11:28;;;;;;;6.13;4.03;;;13.90;82.50;;;;;;5014753;28;20109;-67
2022/10/08 03:13:57;;;;;;;6.18;4.22;;;13.90;82.80;;;;;;5010656;28;20496;-67
2022/10/08 03:16:26;;;;;;;6.10;4.32;;;13.90;82.70;;;;;;5009951;28;20026;-68
2022/10/08 03:18:57;;;;;;;5.57;3.55;;;13.90;82.80;;;;;;5010326;28;20025;-68
2022/10/08 03:21:25;;;;;;;5.20;3.90;;;14.00;82.70;;;;;;5007962;28;20034;-67
2022/10/08 03:23:50;;;;;;;7.53;3.63;;;14.00;82.70;;;;;;5010178;28;20022;-68
2022/10/08 03:26:17;;;;;;;6.55;4.50;;;13.90;82.70;;;;;;5007625;28;20500;-69
2022/10/08 03:28:42;;;;;;;7.38;4.55;;;13.90;82.80;;;;;;5011110;28;20025;-68
2022/10/08 03:31:08;;;;;;;6.70;4.05;;;13.90;82.90;;;;;;5017317;28;20704;-68
2022/10/08 03:33:33;;;;;;;7.35;3.78;;;13.90;82.90;;;;;;5009492;28;20481;-69
2022/10/08 03:35:59;;;;;;;7.18;4.60;;;14.00;82.90;;;;;;5009740;28;20033;-69
2022/10/08 03:38:25;;;;;;;6.47;3.35;;;13.90;82.90;;;;;;5009910;28;20579;-68
2022/10/08 03:40:55;;;;;;;7.32;4.00;;;13.90;82.90;;;;;;5010012;28;20044;-68
2022/10/08 03:43:21;;;;;;;5.38;3.30;;;13.90;83.10;;;;;;5009960;28;20136;-68
2022/10/08 03:45:53;;;;;;;5.10;3.60;;;13.90;83.20;;;;;;5009359;28;20030;-68
2022/10/08 03:48:21;;;;;;;7.55;4.22;;;13.90;83.90;;;;;;5009803;28;20030;-69
2022/10/08 03:50:58;;;;;;;7.28;3.80;;;13.90;83.40;;;;;;5008457;28;20393;-69
2022/10/08 03:53:24;;;;;;;5.72;3.05;;;13.90;83.40;;;;;;5009665;28;20033;-68
2022/10/08 03:55:50;;;;;;;6.35;3.78;;;13.90;83.30;;;;;;5009582;28;20443;-69
2022/10/08 03:58:16;;;;;;;7.05;4.22;;;13.90;83.40;;;;;;5009525;28;20030;-69
2022/10/08 04:00:42;;;;;;;6.60;3.78;;;13.90;83.40;;;;;;5009162;28;20037;-69
2022/10/08 04:03:08;;;;;;;5.07;3.60;;;13.90;83.40;;;;;;5009289;28;20495;-68
2022/10/08 04:05:34;;;;;;;5.68;3.60;;;13.90;83.50;;;;;;5011598;28;20030;-68
2022/10/08 04:07:59;;;;;;;5.00;2.97;;;13.90;83.50;;;;;;5013479;28;20022;-69
2022/10/08 04:10:25;;;;;;;5.85;3.28;;;13.90;83.40;;;;;;5013839;28;20119;-69
2022/10/08 04:12:51;;;;;;;5.68;3.42;;;13.90;83.40;;;;;;5013186;28;20030;-68
2022/10/08 04:15:16;;;;;;;6.05;3.90;;;13.90;83.50;;;;;;5013383;28;20087;-67
2022/10/08 04:17:42;;;;;;;8.05;3.78;;;13.80;83.60;;;;;;5013098;28;20026;-67
2022/10/08 04:20:08;;;;;;;4.78;2.90;;;13.80;83.70;;;;;;5016929;28;20119;-67
2022/10/08 04:22:33;;;;;;;7.30;3.55;;;13.80;83.70;;;;;;5013515;28;20540;-68
2022/10/08 04:24:59;;;;;;;5.13;3.40;;;13.80;83.70;;;;;;5013331;28;20053;-67
2022/10/08 04:27:25;;;;;;;4.95;3.25;;;13.80;83.70;;;;;;5012481;28;20049;-67
2022/10/08 04:29:50;;;;;;;6.05;4.05;;;13.80;83.70;;;;;;5012359;28;20374;-67
2022/10/08 04:32:16;;;;;;;7.40;4.57;;;13.70;83.90;;;;;;5012521;28;20077;-68
2022/10/08 04:34:42;;;;;;;7.40;3.80;;;13.70;84.40;;;;;;5012909;28;20053;-68
2022/10/08 04:37:07;;;;;;;5.35;3.45;;;13.60;84.40;;;;;;5012610;28;20088;-68
2022/10/08 04:39:33;;;;;;;6.80;3.90;;;13.70;84.40;;;;;;5012997;28;20065;-68
2022/10/08 04:41:59;;;;;;;6.05;3.80;;;13.70;84.30;;;;;;5012909;28;20112;-68
2022/10/08 04:44:24;;;;;;;6.85;3.75;;;13.70;84.40;;;;;;5012679;28;20448;-68
2022/10/08 04:46:50;;;;;;;8.30;4.20;;;13.70;84.30;;;;;;5011618;28;20431;-68
2022/10/08 04:49:15;;;;;;;4.65;3.05;;;13.70;84.40;;;;;;5020628;28;20076;-68
2022/10/08 04:51:41;;;;;;;8.02;4.70;;;13.70;84.30;;;;;;5011412;28;20025;-68
2022/10/08 04:54:07;;;;;;;6.00;4.10;;;13.70;84.30;;;;;;5010429;28;20117;-68
2022/10/08 04:56:35;;;;;;;6.65;4.00;;;13.70;84.40;;;;;;5011712;28;20030;-69
2022/10/08 04:59:00;;;;;;;7.82;4.38;;;13.70;84.40;;;;;;5011043;28;20062;-69
2022/10/08 05:01:27;;;;;;;5.85;3.90;;;13.70;84.50;;;;;;5011694;28;20053;-67
2022/10/08 05:03:54;;;;;;;3.88;3.03;;;13.70;84.40;;;;;;5012204;28;20492;-69
2022/10/08 05:06:23;;;;;;;5.32;3.72;;;13.70;84.30;;;;;;5011729;28;20060;-69
2022/10/08 05:08:49;;;;;;;7.10;3.90;;;13.70;84.20;;;;;;5012243;28;20030;-69
2022/10/08 05:11:16;;;;;;;7.20;4.72;;;13.70;84.20;;;;;;5011540;28;20037;-68
2022/10/08 05:13:42;;;;;;;5.60;3.50;;;13.70;84.20;;;;;;5011838;28;20172;-69
2022/10/08 05:16:11;;;;;;;6.50;4.53;;;13.70;84.10;;;;;;5010957;28;20100;-68
2022/10/08 05:18:37;;;;;;;7.00;4.43;;;13.70;84.20;;;;;;5005647;28;20026;-68
2022/10/08 05:21:12;;;;;;;5.38;3.60;;;13.70;84.20;;;;;;5011470;28;20079;-68
2022/10/08 05:23:38;;;;;;;6.43;4.25;;;13.60;84.20;;;;;;5012110;28;20544;-67
2022/10/08 05:26:19;;;;;;;7.13;4.55;;;13.70;84.20;;;;;;5012119;28;20097;-67
2022/10/08 05:28:47;;;;;;;8.30;5.20;;;13.60;84.20;;;;;;4998370;28;20025;-67
2022/10/08 05:31:16;;;;;;;6.82;4.30;;;13.60;84.30;;;;;;5012340;28;20022;-67
2022/10/08 05:33:41;;;;;;;7.65;4.47;;;13.60;84.30;;;;;;5011322;28;20109;-68
2022/10/08 05:36:16;;;;;;;12.90;7.35;;;13.60;84.30;;;;;;5012093;28;20122;-69
2022/10/08 05:38:44;;;;;;;7.78;5.03;;;13.50;84.60;;;;;;5010825;28;20488;-68
2022/10/08 05:41:17;;;;;;;6.20;4.63;;;13.50;84.80;;;;;;4992954;28;20424;-68
2022/10/08 05:43:43;;;;;;;8.55;5.22;;;13.50;84.80;;;;;;5011471;28;20041;-69
2022/10/08 05:46:09;;;;;;;7.38;4.50;;;13.50;84.80;;;;;;5012201;28;20018;-70
2022/10/08 05:48:35;;;;;;;9.05;5.20;;;13.50;84.70;;;;;;5010308;28;20029;-68
2022/10/08 05:51:06;;;;;;;16.88;11.60;;;13.60;84.80;;;;;;5009714;28;20033;-68
2022/10/08 05:53:40;;;;;;;48.50;31.02;;;13.60;84.80;;;;;;5011281;28;20084;-68
2022/10/08 05:56:07;;;;;;;42.15;30.30;;;13.60;84.70;;;;;;5011140;28;20033;-68
2022/10/08 05:58:35;;;;;;;39.05;30.98;;;13.60;84.60;;;;;;5011060;28;20400;-68
2022/10/08 06:01:03;;;;;;;55.40;46.28;;;13.70;84.60;;;;;;5011410;28;20370;-68
2022/10/08 06:03:29;;;;;;;20.23;17.55;;;13.70;84.60;;;;;;5011409;28;20022;-68
2022/10/08 06:06:05;;;;;;;17.67;12.63;;;13.60;84.50;;;;;;5007346;28;20444;-68
2022/10/08 06:08:32;;;;;;;11.30;8.25;;;13.70;84.60;;;;;;5001962;28;20030;-68
2022/10/08 06:10:58;;;;;;;9.25;6.80;;;13.70;84.60;;;;;;5011496;28;20038;-68
2022/10/08 06:13:24;;;;;;;9.65;7.88;;;13.70;84.50;;;;;;5010872;28;20485;-68
2022/10/08 06:16:01;;;;;;;7.28;5.72;;;13.70;84.40;;;;;;5010462;28;20038;-68
2022/10/08 06:18:29;;;;;;;8.27;5.85;;;13.60;84.30;;;;;;5011304;28;20034;-68
2022/10/08 06:20:55;;;;;;;9.65;7.90;;;13.60;84.60;;;;;;5011367;28;20018;-68
2022/10/08 06:23:21;;;;;;;7.88;6.10;;;13.60;84.70;;;;;;5011230;28;20076;-68
2022/10/08 06:25:47;;;;;;;7.78;5.32;;;13.60;84.80;;;;;;5011378;28;20018;-68
2022/10/08 06:28:13;;;;;;;10.35;6.90;;;13.50;84.80;;;;;;5010564;28;20033;-69
2022/10/08 06:30:42;;;;;;;9.45;6.30;;;13.50;84.80;;;;;;5011241;28;20581;-69
2022/10/08 06:33:09;;;;;;;6.10;5.50;;;13.60;84.80;;;;;;5010622;28;20064;-68
2022/10/08 06:35:35;;;;;;;8.15;5.75;;;13.50;84.80;;;;;;5011164;28;20025;-68
2022/10/08 06:38:01;;;;;;;8.70;5.82;;;13.50;84.80;;;;;;5010787;28;20026;-68
2022/10/08 06:40:27;;;;;;;6.10;5.22;;;13.50;85.00;;;;;;5009834;28;20499;-68
2022/10/08 06:42:52;;;;;;;8.30;6.55;;;13.50;85.00;;;;;;5010934;28;20030;-68
2022/10/08 06:45:18;;;;;;;8.50;6.00;;;13.60;84.90;;;;;;5009238;28;20030;-68
2022/10/08 06:47:43;;;;;;;6.95;5.30;;;13.50;84.90;;;;;;5010132;28;20045;-68
2022/10/08 06:50:09;;;;;;;5.45;4.50;;;13.50;84.80;;;;;;5010691;28;20030;-68
2022/10/08 06:52:34;;;;;;;6.85;4.40;;;13.60;84.70;;;;;;5011022;28;20121;-69
2022/10/08 06:55:00;;;;;;;6.80;5.03;;;13.60;84.70;;;;;;5011263;28;20030;-69
2022/10/08 06:57:26;;;;;;;4.93;3.50;;;13.60;84.60;;;;;;5009444;28;20029;-69
2022/10/08 06:59:56;;;;;;;8.38;6.18;;;13.60;84.40;;;;;;5001657;28;20175;-68
2022/10/08 07:02:22;;;;;;;9.63;5.75;;;13.60;84.40;;;;;;5012608;28;20388;-68
2022/10/08 07:04:47;;;;;;;10.95;8.57;;;13.60;84.50;;;;;;5009209;28;20041;-68
2022/10/08 07:07:13;;;;;;;8.25;5.15;;;13.60;84.50;;;;;;5007938;28;20034;-68
2022/10/08 07:09:38;;;;;;;8.38;4.35;;;13.70;84.40;;;;;;5016520;28;20025;-68
2022/10/08 07:12:04;;;;;;;4.70;3.33;;;13.70;84.40;;;;;;5012996;28;20034;-68
2022/10/08 07:14:29;;;;;;;7.10;3.20;;;13.70;84.30;;;;;;5006304;28;20030;-68
2022/10/08 07:16:55;;;;;;;5.95;3.33;;;13.80;84.20;;;;;;5008963;28;20154;-68
2022/10/08 07:19:22;;;;;;;6.32;3.30;;;13.80;84.20;;;;;;5008906;28;20033;-69
2022/10/08 07:21:47;;;;;;;5.60;2.63;;;13.90;84.10;;;;;;5009004;28;20046;-67
2022/10/08 07:24:13;;;;;;;5.88;2.78;;;13.90;83.80;;;;;;5013941;28;20440;-67
2022/10/08 07:26:38;;;;;;;4.80;2.92;;;14.00;83.70;;;;;;5019608;28;20033;-69
2022/10/08 07:29:07;;;;;;;4.70;2.78;;;14.00;83.50;;;;;;5021074;28;20025;-68
2022/10/08 07:31:35;;;;;;;6.43;2.60;;;14.10;83.40;;;;;;5013768;28;20041;-68
2022/10/08 07:34:03;;;;;;;5.03;2.80;;;14.10;83.20;;;;;;5004815;28;20088;-68
2022/10/08 07:36:29;;;;;;;5.28;2.80;;;14.10;83.00;;;;;;5015811;28;20022;-68
2022/10/08 07:39:01;;;;;;;6.47;2.83;;;14.20;82.90;;;;;;5015855;28;20029;-68
2022/10/08 07:41:28;;;;;;;7.82;2.85;;;14.20;82.80;;;;;;5010200;28;20026;-68
2022/10/08 07:43:58;;;;;;;4.07;2.45;;;14.20;82.50;;;;;;5003718;28;20029;-68
2022/10/08 07:46:29;;;;;;;3.13;2.08;;;14.30;82.40;;;;;;5009211;28;20034;-68
2022/10/08 07:48:57;;;;;;;6.13;2.03;;;14.30;82.10;;;;;;5016068;28;20022;-68
2022/10/08 07:51:24;;;;;;;4.00;2.10;;;14.30;81.90;;;;;;5013612;28;20030;-68
2022/10/08 07:53:50;;;;;;;4.00;1.80;;;14.40;81.70;;;;;;4998242;28;20463;-68
2022/10/08 07:56:17;;;;;;;4.32;1.90;;;14.40;81.50;;;;;;5003263;28;20121;-67
2022/10/08 07:58:43;;;;;;;4.10;1.80;;;14.50;81.30;;;;;;5013313;28;20024;-67
2022/10/08 08:01:14;;;;;;;4.93;1.60;;;14.50;80.90;;;;;;5009957;28;20060;-69
2022/10/08 08:03:40;;;;;;;2.90;1.58;;;14.50;80.60;;;;;;4991736;28;20041;-69
2022/10/08 08:06:09;;;;;;;4.50;1.60;;;14.60;80.50;;;;;;5002039;28;20026;-68
2022/10/08 08:08:36;;;;;;;4.18;1.48;;;14.60;80.30;;;;;;5001431;28;20037;-70
2022/10/08 08:11:03;;;;;;;6.22;1.98;;;14.70;80.00;;;;;;5000683;28;20026;-68
2022/10/08 08:13:31;;;;;;;5.10;1.73;;;14.70;79.90;;;;;;5003430;28;20138;-67
2022/10/08 08:15:57;;;;;;;3.03;1.50;;;14.80;79.70;;;;;;5000295;28;20477;-67
2022/10/08 08:18:23;;;;;;;4.28;1.30;;;14.80;79.20;;;;;;5003370;28;20037;-67
2022/10/08 08:20:55;;;;;;;4.25;1.50;;;14.80;79.00;;;;;;4997030;28;20587;-67
2022/10/08 08:23:21;;;;;;;6.63;2.10;;;14.90;78.90;;;;;;5001515;28;20029;-67
2022/10/08 08:25:46;;;;;;;4.30;2.08;;;14.90;79.30;;;;;;5003833;28;20029;-67
2022/10/08 08:28:12;;;;;;;4.15;1.67;;;15.00;78.50;;;;;;5002906;28;20026;-67
2022/10/08 08:30:40;;;;;;;4.18;1.60;;;15.00;78.20;;;;;;5004510;28;20032;-67
2022/10/08 08:33:06;;;;;;;5.75;1.70;;;15.00;77.80;;;;;;4998402;28;20034;-67
2022/10/08 08:35:31;;;;;;;5.13;1.73;;;15.00;77.70;;;;;;4999763;28;20436;-67
2022/10/08 08:37:57;;;;;;;6.90;1.90;;;15.10;77.60;;;;;;4999307;28;20036;-66
2022/10/08 08:40:22;;;;;;;4.55;1.50;;;15.10;77.20;;;;;;5001518;28;20032;-67
2022/10/08 08:42:55;;;;;;;4.68;1.45;;;15.10;77.00;;;;;;4995963;28;20409;-68
2022/10/08 08:45:25;;;;;;;2.00;1.00;;;15.10;77.50;;;;;;4999075;28;20476;-67
2022/10/08 08:48:06;;;;;;;5.03;1.40;;;15.10;76.70;;;;;;5000779;28;20030;-67
2022/10/08 08:50:33;;;;;;;3.30;1.13;;;15.20;76.40;;;;;;5001276;28;20025;-68
2022/10/08 08:53:00;;;;;;;4.07;1.00;;;15.20;76.10;;;;;;5006633;28;20022;-68
2022/10/08 08:55:35;;;;;;;3.88;1.13;;;15.20;75.80;;;;;;4996365;28;20022;-68
2022/10/08 08:58:25;;;;;;;4.32;1.20;;;15.30;75.60;;;;;;5003270;28;20397;-67
2022/10/08 09:01:01;;;;;;;3.13;1.13;;;15.30;75.20;;;;;;4999820;28;20034;-66
2022/10/08 09:03:40;;;;;;;4.78;1.38;;;15.30;74.60;;;;;;5004679;28;20037;-67
2022/10/08 09:06:08;;;;;;;4.90;1.65;;;15.40;73.90;;;;;;5000672;28;20129;-68
2022/10/08 09:09:00;;;;;;;3.20;1.10;;;15.40;73.60;;;;;;4996249;28;20022;-68
2022/10/08 09:11:29;;;;;;;3.70;1.25;;;15.40;73.40;;;;;;5001541;28;20068;-68
2022/10/08 09:14:13;;;;;;;2.63;1.00;;;15.50;72.90;;;;;;4998006;28;20018;-68
2022/10/08 09:16:39;;;;;;;3.25;1.00;;;15.50;72.60;;;;;;4999794;28;20088;-68
2022/10/08 09:19:05;;;;;;;7.78;1.27;;;15.60;72.40;;;;;;5002398;28;20045;-68
2022/10/08 09:21:33;;;;;;;3.65;1.20;;;15.60;72.20;;;;;;5003791;28;20045;-68
2022/10/08 09:23:59;;;;;;;3.83;1.20;;;15.70;71.80;;;;;;5007312;28;20101;-68
2022/10/08 09:26:30;;;;;;;4.68;1.95;;;15.80;71.60;;;;;;5007929;28;20149;-68
2022/10/08 09:28:58;;;;;;;5.55;1.40;;;15.80;71.00;;;;;;5003087;28;20030;-68
2022/10/08 09:31:26;;;;;;;4.22;1.52;;;16.00;71.00;;;;;;5005976;28;20036;-67
2022/10/08 09:34:02;;;;;;;3.83;1.35;;;16.10;70.50;;;;;;5002280;28;20102;-69
2022/10/08 09:36:45;;;;;;;4.38;1.20;;;16.30;69.90;;;;;;5012502;28;20072;-69
2022/10/08 09:39:31;;;;;;;5.13;1.20;;;16.30;69.70;;;;;;5011388;28;20048;-67
2022/10/08 09:42:06;;;;;;;3.38;1.20;;;16.40;68.70;;;;;;5012210;28;20057;-68
2022/10/08 09:44:43;;;;;;;2.92;1.10;;;16.40;68.80;;;;;;5008045;28;20384;-68
2022/10/08 09:47:16;;;;;;;3.80;1.00;;;16.40;67.90;;;;;;5003460;28;20117;-69
2022/10/08 09:49:42;;;;;;;3.60;1.20;;;16.40;68.00;;;;;;5011637;28;20054;-67
2022/10/08 09:52:18;;;;;;;6.15;1.70;;;16.30;67.70;;;;;;4998986;28;20063;-68
2022/10/08 09:54:47;;;;;;;5.05;1.80;;;16.10;66.80;;;;;;5002879;28;20022;-68
2022/10/08 09:57:19;;;;;;;3.33;1.42;;;16.10;67.20;;;;;;5004821;28;20022;-68
2022/10/08 09:59:56;;;;;;;3.83;1.17;;;16.00;67.00;;;;;;5003046;28;20034;-67
2022/10/08 10:02:30;;;;;;;4.40;1.15;;;15.90;67.10;;;;;;4997741;28;20083;-68
2022/10/08 10:04:57;;;;;;;2.83;0.90;;;15.90;67.10;;;;;;5004773;28;20045;-68
2022/10/08 10:07:37;;;;;;;3.05;1.05;;;15.80;67.30;;;;;;5002345;28;20022;-68
2022/10/08 10:10:09;;;;;;;2.33;1.00;;;15.80;67.40;;;;;;5001991;28;20038;-68
2022/10/08 10:12:40;;;;;;;2.58;1.00;;;15.70;67.40;;;;;;5004109;28;20101;-68
2022/10/08 10:15:19;;;;;;;1.80;1.00;;;15.80;67.80;;;;;;4999339;28;20052;-68
2022/10/08 10:17:58;;;;;;;2.53;1.05;;;15.90;67.70;;;;;;4996652;28;20030;-68
2022/10/08 10:20:36;;;;;;;2.35;0.90;;;15.90;67.60;;;;;;4998537;28;20129;-68
2022/10/08 10:23:12;;;;;;;4.25;1.23;;;16.10;67.20;;;;;;5001615;28;20029;-68
2022/10/08 10:26:03;;;;;;;3.50;1.00;;;16.10;66.80;;;;;;5009601;28;20029;-68
2022/10/08 10:28:43;;;;;;;3.03;1.20;;;16.20;65.90;;;;;;5001152;28;20042;-68
2022/10/08 10:31:22;;;;;;;2.70;0.93;;;16.30;65.40;;;;;;5002586;28;20076;-68
2022/10/08 10:33:59;;;;;;;4.63;1.00;;;16.40;65.40;;;;;;5002379;28;20018;-68
2022/10/08 10:36:31;;;;;;;3.25;1.20;;;16.40;65.30;;;;;;5004436;28;20482;-68
2022/10/08 10:38:59;;;;;;;3.70;0.90;;;16.40;65.50;;;;;;5001289;28;20026;-67
2022/10/08 10:41:37;;;;;;;2.80;0.82;;;16.50;65.70;;;;;;4998765;28;20552;-68
2022/10/08 10:44:08;;;;;;;3.97;1.02;;;16.50;65.60;;;;;;5002182;28;20160;-68
2022/10/08 10:46:45;;;;;;;3.05;0.90;;;16.40;65.70;;;;;;5002196;28;20376;-68
2022/10/08 10:49:16;;;;;;;1.92;0.98;;;16.40;65.70;;;;;;4997695;28;20029;-67
2022/10/08 10:52:19;;;;;;;2.75;0.95;;;16.40;65.80;;;;;;5008735;28;20045;-68
2022/10/08 10:55:11;;;;;;;2.58;0.88;;;16.30;65.70;;;;;;5001245;28;20021;-68
2022/10/08 10:57:55;;;;;;;1.80;1.00;;;16.20;65.70;;;;;;5001911;28;20039;-69
2022/10/08 11:00:26;;;;;;;2.95;0.80;;;16.10;66.10;;;;;;5004511;28;20484;-68
2022/10/08 11:03:18;;;;;;;2.58;0.90;;;16.10;66.30;;;;;;5009389;28;20034;-68
2022/10/08 11:05:46;;;;;;;1.92;0.93;;;16.20;66.30;;;;;;5006270;28;20038;-68
2022/10/08 11:08:32;;;;;;;3.15;1.00;;;16.20;66.30;;;;;;5002578;28;20077;-68
2022/10/08 11:11:26;;;;;;;4.65;1.30;;;16.20;66.30;;;;;;5004298;28;20070;-68
2022/10/08 11:14:07;;;;;;;4.32;1.13;;;16.30;66.40;;;;;;4999774;28;20030;-68
2022/10/08 11:16:55;;;;;;;4.13;1.00;;;16.40;66.60;;;;;;5003237;28;20026;-68
2022/10/08 11:19:36;;;;;;;5.30;1.20;;;16.40;66.50;;;;;;5005713;28;20033;-69
2022/10/08 11:22:06;;;;;;;4.65;1.20;;;16.50;66.50;;;;;;5004509;28;20451;-68
2022/10/08 11:24:38;;;;;;;2.42;1.10;;;16.40;66.50;;;;;;5004841;28;20036;-68
2022/10/08 11:27:06;;;;;;;2.85;1.17;;;16.50;66.50;;;;;;5006311;28;20026;-68
2022/10/08 11:29:45;;;;;;;3.25;1.10;;;16.50;66.40;;;;;;5017985;28;20105;-66
2022/10/08 11:32:14;;;;;;;2.78;1.02;;;16.60;66.20;;;;;;5004358;28;20037;-67
2022/10/08 11:34:47;;;;;;;3.45;1.48;;;16.70;65.90;;;;;;4997986;28;20030;-67
2022/10/08 11:37:48;;;;;;;3.55;1.27;;;16.80;65.80;;;;;;5003413;28;20085;-67
2022/10/08 11:40:23;;;;;;;4.43;1.23;;;16.90;65.50;;;;;;5003616;28;20053;-67
2022/10/08 11:43:00;;;;;;;4.18;1.10;;;17.00;65.30;;;;;;5005516;28;20030;-67
2022/10/08 11:45:40;;;;;;;3.47;1.10;;;17.00;65.10;;;;;;5014760;28;20071;-68
2022/10/08 11:48:29;;;;;;;6.32;1.40;;;17.20;65.00;;;;;;5012237;28;20025;-68
2022/10/08 11:51:17;;;;;;;4.03;1.48;;;17.30;64.10;;;;;;5006962;28;20022;-68
2022/10/08 11:54:07;;;;;;;4.13;1.02;;;17.30;63.70;;;;;;5003364;28;20720;-68
2022/10/08 11:56:36;;;;;;;2.72;0.80;;;17.40;63.60;;;;;;5013200;28;20068;-68
2022/10/08 11:59:23;;;;;;;2.65;0.98;;;17.40;63.50;;;;;;5016287;28;20392;-68
2022/10/08 12:01:52;;;;;;;4.05;1.15;;;17.40;63.00;;;;;;5010859;28;20022;-68
2022/10/08 12:04:21;;;;;;;5.13;1.25;;;17.50;63.10;;;;;;5013763;28;20033;-66
2022/10/08 12:06:58;;;;;;;3.85;1.15;;;17.60;62.70;;;;;;5015041;28;20100;-67
2022/10/08 12:09:24;;;;;;;2.50;0.90;;;17.70;62.10;;;;;;5014524;28;20037;-67
2022/10/08 12:11:52;;;;;;;3.90;1.10;;;17.80;61.90;;;;;;5017371;28;20030;-67
2022/10/08 12:14:17;;;;;;;3.78;1.20;;;17.80;61.40;;;;;;5014605;28;20040;-67
2022/10/08 12:16:57;;;;;;;5.45;1.00;;;18.00;61.20;;;;;;5002628;28;20428;-67
2022/10/08 12:19:35;;;;;;;4.85;0.93;;;18.10;60.70;;;;;;5007576;28;20037;-68
2022/10/08 12:22:24;;;;;;;4.22;1.40;;;18.30;60.30;;;;;;5002901;28;20049;-67
2022/10/08 12:25:02;;;;;;;2.75;0.95;;;18.30;59.40;;;;;;5010422;28;20038;-67
2022/10/08 12:27:29;;;;;;;3.17;1.00;;;18.40;59.40;;;;;;5018175;28;20464;-68
2022/10/08 12:30:11;;;;;;;4.00;1.10;;;18.40;59.40;;;;;;5010475;28;20026;-68
2022/10/08 12:32:42;;;;;;;4.50;1.13;;;18.60;58.60;;;;;;5004888;28;20400;-68
2022/10/08 12:35:39;;;;;;;3.13;1.35;;;18.70;58.30;;;;;;5004073;28;20103;-68
2022/10/08 12:38:24;;;;;;;3.05;1.05;;;18.90;57.60;;;;;;5008271;28;20542;-68
2022/10/08 12:40:59;;;;;;;4.45;1.02;;;19.00;57.00;;;;;;5013950;28;20041;-68
2022/10/08 12:43:52;;;;;;;4.85;1.45;;;19.20;56.40;;;;;;5012014;28;20577;-68
2022/10/08 12:46:20;;;;;;;4.03;1.10;;;19.30;55.80;;;;;;5009890;28;20079;-68
2022/10/08 12:49:17;;;;;;;3.50;1.10;;;19.30;55.40;;;;;;5015327;28;20029;-68
2022/10/08 12:52:06;;;;;;;4.35;1.40;;;19.40;54.80;;;;;;5003662;28;20137;-68
2022/10/08 12:54:32;;;;;;;2.65;1.05;;;19.50;54.70;;;;;;5016538;28;20071;-68
2022/10/08 12:56:59;;;;;;;2.55;1.10;;;19.70;55.10;;;;;;5020354;28;20487;-68
2022/10/08 12:59:30;;;;;;;4.50;1.08;;;19.80;54.70;;;;;;5013798;28;20052;-68
2022/10/08 13:01:56;;;;;;;3.50;1.10;;;19.90;54.40;;;;;;5012238;28;20014;-68
2022/10/08 13:04:28;;;;;;;4.22;1.10;;;20.10;54.50;;;;;;5012974;28;20119;-68
2022/10/08 13:06:55;;;;;;;3.65;1.10;;;20.10;52.80;;;;;;5011998;28;20018;-68
2022/10/08 13:09:26;;;;;;;3.00;1.00;;;20.10;51.70;;;;;;5018446;28;20036;-68